sensor_id;sensor_type;location;lat;lon;timestamp;pressure;altitude;pressure_sealevel;temperature;humidity
62333;BME280;48624;49.812;8.562;2024-02-16T00:02:00;100383.03;;;11.14;95.20
62333;BME280;48624;49.812;8.562;2024-02-16T00:04:26;100385.66;;;11.14;94.77
62333;BME280;48624;49.812;8.562;2024-02-16T00:06:51;100383.13;;;11.13;95.34
62333;BME280;48624;49.812;8.562;2024-02-16T00:09:17;100378.69;;;11.13;94.89
62333;BME280;48624;49.812;8.562;2024-02-16T00:11:42;100372.84;;;11.08;95.13
62333;BME280;48624;49.812;8.562;2024-02-16T00:14:09;100372.00;;;11.07;95.20
62333;BME280;48624;49.812;8.562;2024-02-16T00:16:34;100370.31;;;11.06;95.47
62333;BME280;48624;49.812;8.562;2024-02-16T00:18:59;100362.69;;;11.02;95.76
62333;BME280;48624;49.812;8.562;2024-02-16T00:21:25;100366.41;;;10.99;96.32
62333;BME280;48624;49.812;8.562;2024-02-16T00:23:50;100362.78;;;11.00;96.17
62333;BME280;48624;49.812;8.562;2024-02-16T00:26:16;100359.19;;;11.01;95.97
62333;BME280;48624;49.812;8.562;2024-02-16T00:28:41;100356.44;;;11.03;95.50
62333;BME280;48624;49.812;8.562;2024-02-16T00:31:07;100348.56;;;11.01;95.97
62333;BME280;48624;49.812;8.562;2024-02-16T00:33:32;100347.00;;;10.99;96.29
62333;BME280;48624;49.812;8.562;2024-02-16T00:35:58;100342.31;;;11.02;96.05
62333;BME280;48624;49.812;8.562;2024-02-16T00:38:23;100330.25;;;10.98;95.98
62333;BME280;48624;49.812;8.562;2024-02-16T00:40:48;100328.53;;;11.10;95.59
62333;BME280;48624;49.812;8.562;2024-02-16T00:43:15;100336.66;;;11.20;94.92
62333;BME280;48624;49.812;8.562;2024-02-16T00:45:40;100335.59;;;11.22;94.93
62333;BME280;48624;49.812;8.562;2024-02-16T00:48:09;100328.34;;;11.24;94.82
62333;BME280;48624;49.812;8.562;2024-02-16T00:50:36;100339.59;;;11.28;94.46
62333;BME280;48624;49.812;8.562;2024-02-16T00:53:01;100328.75;;;11.31;94.02
62333;BME280;48624;49.812;8.562;2024-02-16T00:55:27;100335.88;;;11.31;94.18
62333;BME280;48624;49.812;8.562;2024-02-16T00:57:52;100334.53;;;11.25;94.13
62333;BME280;48624;49.812;8.562;2024-02-16T01:00:17;100335.91;;;11.18;94.81
62333;BME280;48624;49.812;8.562;2024-02-16T01:02:44;100330.19;;;11.24;93.81
62333;BME280;48624;49.812;8.562;2024-02-16T01:05:10;100328.25;;;11.26;94.17
62333;BME280;48624;49.812;8.562;2024-02-16T01:07:36;100330.78;;;11.28;94.08
62333;BME280;48624;49.812;8.562;2024-02-16T01:10:01;100336.72;;;11.31;93.95
62333;BME280;48624;49.812;8.562;2024-02-16T01:12:29;100335.53;;;11.35;93.81
62333;BME280;48624;49.812;8.562;2024-02-16T01:14:56;100334.00;;;11.44;93.42
62333;BME280;48624;49.812;8.562;2024-02-16T01:17:21;100332.72;;;11.50;92.91
62333;BME280;48624;49.812;8.562;2024-02-16T01:19:46;100341.00;;;11.45;93.00
62333;BME280;48624;49.812;8.562;2024-02-16T01:22:12;100342.69;;;11.46;92.68
62333;BME280;48624;49.812;8.562;2024-02-16T01:24:37;100330.91;;;11.50;92.58
62333;BME280;48624;49.812;8.562;2024-02-16T01:27:03;100332.31;;;11.43;92.67
62333;BME280;48624;49.812;8.562;2024-02-16T01:29:28;100342.75;;;11.33;93.33
62333;BME280;48624;49.812;8.562;2024-02-16T01:31:54;100343.84;;;11.31;93.20
62333;BME280;48624;49.812;8.562;2024-02-16T01:34:19;100343.44;;;11.24;93.18
62333;BME280;48624;49.812;8.562;2024-02-16T01:36:44;100347.09;;;11.10;94.11
62333;BME280;48624;49.812;8.562;2024-02-16T01:39:09;100338.28;;;11.09;93.08
62333;BME280;48624;49.812;8.562;2024-02-16T01:41:38;100343.84;;;10.93;94.42
62333;BME280;48624;49.812;8.562;2024-02-16T01:44:04;100348.53;;;10.64;96.88
62333;BME280;48624;49.812;8.562;2024-02-16T01:46:29;100352.78;;;10.66;95.59
62333;BME280;48624;49.812;8.562;2024-02-16T01:48:54;100358.81;;;10.68;95.25
62333;BME280;48624;49.812;8.562;2024-02-16T01:51:22;100353.19;;;10.60;95.28
62333;BME280;48624;49.812;8.562;2024-02-16T01:53:49;100356.59;;;10.62;94.83
62333;BME280;48624;49.812;8.562;2024-02-16T01:56:15;100344.78;;;10.40;97.88
62333;BME280;48624;49.812;8.562;2024-02-16T01:58:42;100357.56;;;10.48;97.09
62333;BME280;48624;49.812;8.562;2024-02-16T02:01:07;100356.25;;;10.41;97.96
62333;BME280;48624;49.812;8.562;2024-02-16T02:03:32;100354.69;;;10.51;97.16
62333;BME280;48624;49.812;8.562;2024-02-16T02:06:00;100352.69;;;10.55;96.66
62333;BME280;48624;49.812;8.562;2024-02-16T02:08:25;100357.84;;;10.57;96.68
62333;BME280;48624;49.812;8.562;2024-02-16T02:10:52;100355.44;;;10.53;97.45
62333;BME280;48624;49.812;8.562;2024-02-16T02:13:17;100357.25;;;10.53;97.05
62333;BME280;48624;49.812;8.562;2024-02-16T02:15:44;100349.81;;;10.58;96.83
62333;BME280;48624;49.812;8.562;2024-02-16T02:18:09;100345.16;;;10.62;96.09
62333;BME280;48624;49.812;8.562;2024-02-16T02:20:35;100343.47;;;10.61;96.41
62333;BME280;48624;49.812;8.562;2024-02-16T02:23:00;100341.53;;;10.63;95.82
62333;BME280;48624;49.812;8.562;2024-02-16T02:25:25;100348.53;;;10.64;95.93
62333;BME280;48624;49.812;8.562;2024-02-16T02:27:53;100343.22;;;10.64;95.81
62333;BME280;48624;49.812;8.562;2024-02-16T02:30:19;100337.38;;;10.72;95.13
62333;BME280;48624;49.812;8.562;2024-02-16T02:32:46;100331.91;;;10.62;96.02
62333;BME280;48624;49.812;8.562;2024-02-16T02:35:11;100338.78;;;10.64;95.45
62333;BME280;48624;49.812;8.562;2024-02-16T02:37:39;100333.28;;;10.67;95.26
62333;BME280;48624;49.812;8.562;2024-02-16T02:40:05;100335.19;;;10.65;95.25
62333;BME280;48624;49.812;8.562;2024-02-16T02:42:33;100336.97;;;10.65;95.37
62333;BME280;48624;49.812;8.562;2024-02-16T02:45:00;100327.47;;;10.62;95.42
62333;BME280;48624;49.812;8.562;2024-02-16T02:47:25;100328.28;;;10.63;95.19
62333;BME280;48624;49.812;8.562;2024-02-16T02:49:50;100320.56;;;10.60;95.64
62333;BME280;48624;49.812;8.562;2024-02-16T02:52:16;100315.16;;;10.61;95.54
62333;BME280;48624;49.812;8.562;2024-02-16T02:54:41;100322.25;;;10.61;95.33
62333;BME280;48624;49.812;8.562;2024-02-16T02:57:06;100314.31;;;10.61;95.17
62333;BME280;48624;49.812;8.562;2024-02-16T02:59:32;100323.94;;;10.62;95.44
62333;BME280;48624;49.812;8.562;2024-02-16T03:01:57;100322.59;;;10.56;96.22
62333;BME280;48624;49.812;8.562;2024-02-16T03:04:22;100324.50;;;10.54;96.19
62333;BME280;48624;49.812;8.562;2024-02-16T03:06:52;100328.19;;;10.51;95.83
62333;BME280;48624;49.812;8.562;2024-02-16T03:09:18;100325.56;;;10.51;96.30
62333;BME280;48624;49.812;8.562;2024-02-16T03:11:43;100327.25;;;10.52;96.31
62333;BME280;48624;49.812;8.562;2024-02-16T03:14:08;100320.34;;;10.50;96.58
62333;BME280;48624;49.812;8.562;2024-02-16T03:16:34;100327.25;;;10.52;95.94
62333;BME280;48624;49.812;8.562;2024-02-16T03:19:02;100326.72;;;10.47;95.76
62333;BME280;48624;49.812;8.562;2024-02-16T03:21:30;100323.44;;;10.44;95.90
62333;BME280;48624;49.812;8.562;2024-02-16T03:23:55;100323.53;;;10.42;96.03
62333;BME280;48624;49.812;8.562;2024-02-16T03:26:20;100323.75;;;10.39;96.02
62333;BME280;48624;49.812;8.562;2024-02-16T03:28:46;100323.94;;;10.36;95.97
62333;BME280;48624;49.812;8.562;2024-02-16T03:31:21;100328.19;;;10.38;95.55
62333;BME280;48624;49.812;8.562;2024-02-16T03:33:47;100330.28;;;10.33;95.94
62333;BME280;48624;49.812;8.562;2024-02-16T03:36:13;100329.44;;;10.33;96.04
62333;BME280;48624;49.812;8.562;2024-02-16T03:38:47;100329.34;;;10.34;95.26
62333;BME280;48624;49.812;8.562;2024-02-16T03:41:21;100331.47;;;10.29;96.03
62333;BME280;48624;49.812;8.562;2024-02-16T03:43:47;100336.84;;;10.27;96.31
62333;BME280;48624;49.812;8.562;2024-02-16T03:46:12;100334.19;;;10.27;96.65
62333;BME280;48624;49.812;8.562;2024-02-16T03:48:38;100339.63;;;10.26;96.95
62333;BME280;48624;49.812;8.562;2024-02-16T03:51:06;100337.16;;;10.23;96.91
62333;BME280;48624;49.812;8.562;2024-02-16T03:53:32;100341.41;;;10.25;96.89
62333;BME280;48624;49.812;8.562;2024-02-16T03:55:57;100343.31;;;10.23;96.82
62333;BME280;48624;49.812;8.562;2024-02-16T03:58:23;100349.34;;;10.25;97.14
62333;BME280;48624;49.812;8.562;2024-02-16T04:00:49;100350.94;;;10.28;97.13
62333;BME280;48624;49.812;8.562;2024-02-16T04:03:14;100359.63;;;10.30;97.03
62333;BME280;48624;49.812;8.562;2024-02-16T04:05:40;100356.97;;;10.30;97.71
62333;BME280;48624;49.812;8.562;2024-02-16T04:08:06;100352.31;;;10.34;97.97
62333;BME280;48624;49.812;8.562;2024-02-16T04:10:33;100346.44;;;10.43;97.35
62333;BME280;48624;49.812;8.562;2024-02-16T04:12:59;100344.78;;;10.40;97.87
62333;BME280;48624;49.812;8.562;2024-02-16T04:15:24;100341.88;;;10.45;98.15
62333;BME280;48624;49.812;8.562;2024-02-16T04:17:50;100349.31;;;10.53;97.93
62333;BME280;48624;49.812;8.562;2024-02-16T04:20:15;100353.84;;;10.51;98.21
62333;BME280;48624;49.812;8.562;2024-02-16T04:22:42;100353.09;;;10.62;97.86
62333;BME280;48624;49.812;8.562;2024-02-16T04:25:08;100357.03;;;10.69;97.86
62333;BME280;48624;49.812;8.562;2024-02-16T04:27:34;100361.34;;;10.70;97.77
62333;BME280;48624;49.812;8.562;2024-02-16T04:30:01;100351.56;;;10.83;97.19
62333;BME280;48624;49.812;8.562;2024-02-16T04:32:26;100349.56;;;10.87;97.00
62333;BME280;48624;49.812;8.562;2024-02-16T04:34:52;100353.91;;;10.88;96.53
62333;BME280;48624;49.812;8.562;2024-02-16T04:37:18;100350.44;;;10.88;96.12
62333;BME280;48624;49.812;8.562;2024-02-16T04:39:46;100356.56;;;10.88;96.18
62333;BME280;48624;49.812;8.562;2024-02-16T04:42:11;100352.13;;;10.89;95.80
62333;BME280;48624;49.812;8.562;2024-02-16T04:44:37;100339.69;;;10.89;95.71
62333;BME280;48624;49.812;8.562;2024-02-16T04:47:07;100351.88;;;10.92;95.27
62333;BME280;48624;49.812;8.562;2024-02-16T04:49:32;100345.84;;;10.90;95.04
62333;BME280;48624;49.812;8.562;2024-02-16T04:51:57;100345.94;;;10.88;95.03
62333;BME280;48624;49.812;8.562;2024-02-16T04:54:23;100346.09;;;10.87;95.40
62333;BME280;48624;49.812;8.562;2024-02-16T04:56:49;100346.28;;;10.83;95.12
62333;BME280;48624;49.812;8.562;2024-02-16T04:59:15;100332.94;;;10.85;95.04
62333;BME280;48624;49.812;8.562;2024-02-16T05:01:40;100343.75;;;10.82;94.98
62333;BME280;48624;49.812;8.562;2024-02-16T05:04:06;100341.84;;;10.84;95.35
62333;BME280;48624;49.812;8.562;2024-02-16T05:06:32;100344.34;;;10.86;95.19
62333;BME280;48624;49.812;8.562;2024-02-16T05:08:57;100345.94;;;10.88;95.33
62333;BME280;48624;49.812;8.562;2024-02-16T05:11:22;100338.78;;;10.77;95.69
62333;BME280;48624;49.812;8.562;2024-02-16T05:13:49;100340.91;;;10.72;96.22
62333;BME280;48624;49.812;8.562;2024-02-16T05:16:15;100341.84;;;10.71;96.18
62333;BME280;48624;49.812;8.562;2024-02-16T05:18:40;100343.00;;;10.67;96.46
62333;BME280;48624;49.812;8.562;2024-02-16T05:21:06;100346.19;;;10.59;96.65
62333;BME280;48624;49.812;8.562;2024-02-16T05:23:31;100354.47;;;10.54;97.08
62333;BME280;48624;49.812;8.562;2024-02-16T05:25:56;100353.19;;;10.47;97.12
62333;BME280;48624;49.812;8.562;2024-02-16T05:28:22;100351.72;;;10.43;97.55
62333;BME280;48624;49.812;8.562;2024-02-16T05:30:47;100349.50;;;10.50;96.81
62333;BME280;48624;49.812;8.562;2024-02-16T05:33:12;100352.38;;;10.47;97.10
62333;BME280;48624;49.812;8.562;2024-02-16T05:35:39;100359.84;;;10.40;97.62
62333;BME280;48624;49.812;8.562;2024-02-16T05:38:06;100355.31;;;10.42;97.20
62333;BME280;48624;49.812;8.562;2024-02-16T05:40:47;100360.31;;;10.47;96.83
62333;BME280;48624;49.812;8.562;2024-02-16T05:43:22;100367.06;;;10.51;96.37
62333;BME280;48624;49.812;8.562;2024-02-16T05:45:48;100369.00;;;10.49;97.07
62333;BME280;48624;49.812;8.562;2024-02-16T05:48:14;100364.25;;;10.54;96.22
62333;BME280;48624;49.812;8.562;2024-02-16T05:50:39;100363.28;;;10.42;97.22
62333;BME280;48624;49.812;8.562;2024-02-16T05:53:05;100364.09;;;10.43;97.36
62333;BME280;48624;49.812;8.562;2024-02-16T05:55:31;100372.34;;;10.38;97.99
62333;BME280;48624;49.812;8.562;2024-02-16T05:57:56;100371.13;;;10.44;97.44
62333;BME280;48624;49.812;8.562;2024-02-16T06:00:21;100367.72;;;10.41;97.64
62333;BME280;48624;49.812;8.562;2024-02-16T06:02:47;100371.59;;;10.36;97.22
62333;BME280;48624;49.812;8.562;2024-02-16T06:05:12;100369.81;;;10.36;97.46
62333;BME280;48624;49.812;8.562;2024-02-16T06:07:44;100367.25;;;10.35;96.99
62333;BME280;48624;49.812;8.562;2024-02-16T06:10:09;100372.56;;;10.35;96.70
62333;BME280;48624;49.812;8.562;2024-02-16T06:12:39;100377.53;;;10.26;97.06
62333;BME280;48624;49.812;8.562;2024-02-16T06:15:07;100381.53;;;10.32;96.94
62333;BME280;48624;49.812;8.562;2024-02-16T06:17:33;100396.91;;;10.27;97.01
62333;BME280;48624;49.812;8.562;2024-02-16T06:19:58;100381.53;;;10.19;97.80
62333;BME280;48624;49.812;8.562;2024-02-16T06:22:25;100384.94;;;10.21;97.52
62333;BME280;48624;49.812;8.562;2024-02-16T06:24:50;100385.91;;;10.20;97.61
62333;BME280;48624;49.812;8.562;2024-02-16T06:27:16;100391.69;;;10.12;98.72
62333;BME280;48624;49.812;8.562;2024-02-16T06:29:41;100388.09;;;10.13;98.31
62333;BME280;48624;49.812;8.562;2024-02-16T06:32:07;100403.22;;;10.11;98.09
62333;BME280;48624;49.812;8.562;2024-02-16T06:34:33;100398.22;;;9.94;100.00
62333;BME280;48624;49.812;8.562;2024-02-16T06:36:58;100398.75;;;9.99;100.00
62333;BME280;48624;49.812;8.562;2024-02-16T06:39:24;100390.47;;;9.91;100.00
62333;BME280;48624;49.812;8.562;2024-02-16T06:41:49;100391.75;;;9.85;100.00
62333;BME280;48624;49.812;8.562;2024-02-16T06:44:15;100392.44;;;10.02;100.00
62333;BME280;48624;49.812;8.562;2024-02-16T06:46:41;100393.66;;;9.83;100.00
62333;BME280;48624;49.812;8.562;2024-02-16T06:49:07;100409.13;;;10.02;100.00
62333;BME280;48624;49.812;8.562;2024-02-16T06:51:32;100408.84;;;10.07;100.00
62333;BME280;48624;49.812;8.562;2024-02-16T06:53:58;100412.13;;;10.10;99.56
62333;BME280;48624;49.812;8.562;2024-02-16T06:56:23;100409.28;;;10.26;98.81
62333;BME280;48624;49.812;8.562;2024-02-16T06:58:50;100419.78;;;10.28;98.46
62333;BME280;48624;49.812;8.562;2024-02-16T07:01:17;100419.38;;;10.34;97.88
62333;BME280;48624;49.812;8.562;2024-02-16T07:03:45;100416.84;;;10.33;97.93
62333;BME280;48624;49.812;8.562;2024-02-16T07:06:11;100423.91;;;10.32;97.53
62333;BME280;48624;49.812;8.562;2024-02-16T07:08:42;100420.13;;;10.36;97.50
62333;BME280;48624;49.812;8.562;2024-02-16T07:11:09;100417.53;;;10.22;96.89
62333;BME280;48624;49.812;8.562;2024-02-16T07:13:39;100422.44;;;10.28;97.23
62333;BME280;48624;49.812;8.562;2024-02-16T07:16:05;100434.72;;;10.29;96.33
62333;BME280;48624;49.812;8.562;2024-02-16T07:18:35;100436.56;;;10.41;96.64
62333;BME280;48624;49.812;8.562;2024-02-16T07:21:01;100431.81;;;10.47;96.25
62333;BME280;48624;49.812;8.562;2024-02-16T07:23:26;100447.81;;;10.45;95.45
62333;BME280;48624;49.812;8.562;2024-02-16T07:25:52;100439.81;;;10.32;95.25
62333;BME280;48624;49.812;8.562;2024-02-16T07:28:21;100431.09;;;10.45;95.38
62333;BME280;48624;49.812;8.562;2024-02-16T07:30:47;100445.72;;;10.50;94.58
62333;BME280;48624;49.812;8.562;2024-02-16T07:33:12;100446.78;;;10.61;94.59
62333;BME280;48624;49.812;8.562;2024-02-16T07:35:37;100454.28;;;10.67;93.75
62333;BME280;48624;49.812;8.562;2024-02-16T07:38:03;100451.22;;;10.73;93.33
62333;BME280;48624;49.812;8.562;2024-02-16T07:40:29;100453.03;;;10.86;92.64
62333;BME280;48624;49.812;8.562;2024-02-16T07:42:54;100454.09;;;10.83;91.97
62333;BME280;48624;49.812;8.562;2024-02-16T07:45:21;100456.31;;;10.89;91.94
62333;BME280;48624;49.812;8.562;2024-02-16T07:47:47;100468.41;;;11.06;91.35
62333;BME280;48624;49.812;8.562;2024-02-16T07:50:12;100473.91;;;11.16;91.29
62333;BME280;48624;49.812;8.562;2024-02-16T07:52:38;100475.72;;;11.16;90.51
62333;BME280;48624;49.812;8.562;2024-02-16T07:55:05;100466.41;;;11.10;90.10
62333;BME280;48624;49.812;8.562;2024-02-16T07:57:30;100468.34;;;11.45;90.62
62333;BME280;48624;49.812;8.562;2024-02-16T07:59:56;100471.00;;;11.45;90.60
62333;BME280;48624;49.812;8.562;2024-02-16T08:02:23;100467.81;;;11.53;89.93
62333;BME280;48624;49.812;8.562;2024-02-16T08:04:49;100473.38;;;11.61;89.28
62333;BME280;48624;49.812;8.562;2024-02-16T08:07:14;100460.41;;;11.70;89.13
62333;BME280;48624;49.812;8.562;2024-02-16T08:09:43;100470.69;;;11.74;88.20
62333;BME280;48624;49.812;8.562;2024-02-16T08:12:09;100465.13;;;11.90;87.65
62333;BME280;48624;49.812;8.562;2024-02-16T08:14:34;100463.03;;;11.83;86.51
62333;BME280;48624;49.812;8.562;2024-02-16T08:16:59;100457.09;;;11.79;86.40
62333;BME280;48624;49.812;8.562;2024-02-16T08:19:31;100457.09;;;11.79;86.05
62333;BME280;48624;49.812;8.562;2024-02-16T08:21:57;100453.13;;;11.85;85.81
62333;BME280;48624;49.812;8.562;2024-02-16T08:24:23;100461.91;;;11.98;86.10
62333;BME280;48624;49.812;8.562;2024-02-16T08:26:48;100471.38;;;12.02;85.66
62333;BME280;48624;49.812;8.562;2024-02-16T08:29:13;100466.59;;;11.94;85.82
62333;BME280;48624;49.812;8.562;2024-02-16T08:31:39;100471.41;;;12.14;85.90
62333;BME280;48624;49.812;8.562;2024-02-16T08:34:04;100476.47;;;12.05;85.82
62333;BME280;48624;49.812;8.562;2024-02-16T08:36:32;100480.06;;;12.04;85.90
62333;BME280;48624;49.812;8.562;2024-02-16T08:38:59;100488.19;;;12.14;85.14
62333;BME280;48624;49.812;8.562;2024-02-16T08:41:24;100482.94;;;12.26;85.28
62333;BME280;48624;49.812;8.562;2024-02-16T08:43:50;100476.28;;;12.20;85.29
62333;BME280;48624;49.812;8.562;2024-02-16T08:46:15;100484.97;;;12.22;84.91
62333;BME280;48624;49.812;8.562;2024-02-16T08:48:40;100488.59;;;12.21;84.84
62333;BME280;48624;49.812;8.562;2024-02-16T08:51:05;100491.53;;;12.29;85.22
62333;BME280;48624;49.812;8.562;2024-02-16T08:53:31;100491.88;;;12.25;84.83
62333;BME280;48624;49.812;8.562;2024-02-16T08:55:56;100486.31;;;12.28;85.37
62333;BME280;48624;49.812;8.562;2024-02-16T08:58:21;100484.09;;;12.46;85.30
62333;BME280;48624;49.812;8.562;2024-02-16T09:00:47;100482.03;;;12.38;85.09
62333;BME280;48624;49.812;8.562;2024-02-16T09:03:13;100488.28;;;12.37;85.47
62333;BME280;48624;49.812;8.562;2024-02-16T09:05:40;100485.53;;;12.39;84.94
62333;BME280;48624;49.812;8.562;2024-02-16T09:08:05;100485.25;;;12.30;85.32
62333;BME280;48624;49.812;8.562;2024-02-16T09:10:31;100485.53;;;12.39;85.46
62333;BME280;48624;49.812;8.562;2024-02-16T09:12:57;100479.28;;;12.51;85.30
62333;BME280;48624;49.812;8.562;2024-02-16T09:15:22;100483.16;;;12.58;85.30
62333;BME280;48624;49.812;8.562;2024-02-16T09:17:47;100499.25;;;12.57;85.44
62333;BME280;48624;49.812;8.562;2024-02-16T09:20:13;100489.81;;;12.64;85.36
62333;BME280;48624;49.812;8.562;2024-02-16T09:22:40;100489.28;;;12.83;84.61
62333;BME280;48624;49.812;8.562;2024-02-16T09:25:06;100486.97;;;12.79;84.04
62333;BME280;48624;49.812;8.562;2024-02-16T09:27:31;100497.25;;;12.83;83.95
62333;BME280;48624;49.812;8.562;2024-02-16T09:29:56;100499.19;;;12.81;83.01
62333;BME280;48624;49.812;8.562;2024-02-16T09:32:22;100510.56;;;12.95;83.34
62333;BME280;48624;49.812;8.562;2024-02-16T09:34:47;100501.03;;;13.15;83.24
62333;BME280;48624;49.812;8.562;2024-02-16T09:37:13;100513.47;;;13.14;82.43
62333;BME280;48624;49.812;8.562;2024-02-16T09:39:38;100518.19;;;13.22;82.31
62333;BME280;48624;49.812;8.562;2024-02-16T09:42:04;100517.25;;;13.35;82.42
62333;BME280;48624;49.812;8.562;2024-02-16T09:44:30;100517.72;;;13.17;82.22
62333;BME280;48624;49.812;8.562;2024-02-16T09:46:56;100526.06;;;13.35;82.16
62333;BME280;48624;49.812;8.562;2024-02-16T09:49:26;100529.34;;;13.27;80.88
62333;BME280;48624;49.812;8.562;2024-02-16T09:51:51;100535.00;;;13.11;80.52
62333;BME280;48624;49.812;8.562;2024-02-16T09:54:19;100536.38;;;13.51;80.60
62333;BME280;48624;49.812;8.562;2024-02-16T09:56:45;100538.47;;;13.48;80.17
62333;BME280;48624;49.812;8.562;2024-02-16T09:59:11;100543.41;;;13.52;79.94
62333;BME280;48624;49.812;8.562;2024-02-16T10:01:37;100545.81;;;13.67;80.09
62333;BME280;48624;49.812;8.562;2024-02-16T10:04:06;100546.53;;;13.69;78.99
62333;BME280;48624;49.812;8.562;2024-02-16T10:06:32;100555.22;;;13.94;79.40
62333;BME280;48624;49.812;8.562;2024-02-16T10:08:58;100554.94;;;14.08;79.49
62333;BME280;48624;49.812;8.562;2024-02-16T10:11:25;100556.66;;;13.98;78.73
62333;BME280;48624;49.812;8.562;2024-02-16T10:13:56;100568.97;;;14.22;78.99
62333;BME280;48624;49.812;8.562;2024-02-16T10:16:22;100565.28;;;14.34;78.46
62333;BME280;48624;49.812;8.562;2024-02-16T10:18:47;100560.22;;;14.64;77.26
62333;BME280;48624;49.812;8.562;2024-02-16T10:21:12;100568.28;;;14.52;76.69
62333;BME280;48624;49.812;8.562;2024-02-16T10:23:38;100565.78;;;14.93;76.43
62333;BME280;48624;49.812;8.562;2024-02-16T10:26:03;100563.06;;;15.05;75.26
62333;BME280;48624;49.812;8.562;2024-02-16T10:28:29;100571.97;;;14.94;74.05
62333;BME280;48624;49.812;8.562;2024-02-16T10:30:59;100560.91;;;15.20;73.84
62333;BME280;48624;49.812;8.562;2024-02-16T10:33:27;100575.34;;;15.17;74.71
62333;BME280;48624;49.812;8.562;2024-02-16T10:35:55;100573.06;;;15.34;73.65
62333;BME280;48624;49.812;8.562;2024-02-16T10:38:21;100570.50;;;15.53;74.05
62333;BME280;48624;49.812;8.562;2024-02-16T10:40:48;100576.94;;;15.20;72.62
62333;BME280;48624;49.812;8.562;2024-02-16T10:43:13;100585.69;;;15.32;74.14
62333;BME280;48624;49.812;8.562;2024-02-16T10:45:40;100593.88;;;15.40;73.44
62333;BME280;48624;49.812;8.562;2024-02-16T10:48:06;100585.06;;;15.18;74.11
62333;BME280;48624;49.812;8.562;2024-02-16T10:50:35;100591.19;;;15.40;74.13
62333;BME280;48624;49.812;8.562;2024-02-16T10:55:34;100590.84;;;15.23;73.92
62333;BME280;48624;49.812;8.562;2024-02-16T10:58:00;100588.97;;;14.93;73.47
62333;BME280;48624;49.812;8.562;2024-02-16T11:00:25;100586.69;;;15.09;74.46
62333;BME280;48624;49.812;8.562;2024-02-16T11:02:53;100584.41;;;15.57;73.89
62333;BME280;48624;49.812;8.562;2024-02-16T11:05:31;100590.88;;;15.54;73.14
62333;BME280;48624;49.812;8.562;2024-02-16T11:08:03;100585.88;;;15.40;74.06
62333;BME280;48624;49.812;8.562;2024-02-16T11:10:29;100572.69;;;15.79;74.23
62333;BME280;48624;49.812;8.562;2024-02-16T11:13:01;100574.19;;;15.93;72.87
62333;BME280;48624;49.812;8.562;2024-02-16T11:15:28;100577.72;;;15.73;73.98
62333;BME280;48624;49.812;8.562;2024-02-16T11:18:03;100571.66;;;15.71;72.70
62333;BME280;48624;49.812;8.562;2024-02-16T11:20:37;100575.84;;;15.32;73.09
62333;BME280;48624;49.812;8.562;2024-02-16T11:23:08;100576.31;;;15.78;73.25
62333;BME280;48624;49.812;8.562;2024-02-16T11:25:34;100574.88;;;15.33;74.07
62333;BME280;48624;49.812;8.562;2024-02-16T11:28:01;100583.16;;;15.61;74.15
62333;BME280;48624;49.812;8.562;2024-02-16T11:30:27;100588.28;;;15.43;74.48
62333;BME280;48624;49.812;8.562;2024-02-16T11:32:53;100587.44;;;15.21;74.04
62333;BME280;48624;49.812;8.562;2024-02-16T11:35:18;100591.16;;;15.51;74.52
62333;BME280;48624;49.812;8.562;2024-02-16T11:37:44;100590.78;;;15.35;75.03
62333;BME280;48624;49.812;8.562;2024-02-16T11:40:13;100582.75;;;15.66;73.99
62333;BME280;48624;49.812;8.562;2024-02-16T11:42:38;100584.94;;;15.51;75.61
62333;BME280;48624;49.812;8.562;2024-02-16T11:45:04;100590.00;;;15.54;74.78
62333;BME280;48624;49.812;8.562;2024-02-16T11:47:29;100592.44;;;15.57;74.60
62333;BME280;48624;49.812;8.562;2024-02-16T11:50:06;100580.38;;;15.73;74.83
62333;BME280;48624;49.812;8.562;2024-02-16T11:52:32;100588.00;;;15.77;74.68
62333;BME280;48624;49.812;8.562;2024-02-16T11:54:58;100594.31;;;15.66;75.05
62333;BME280;48624;49.812;8.562;2024-02-16T11:57:29;100582.56;;;15.58;74.51
62333;BME280;48624;49.812;8.562;2024-02-16T11:59:55;100583.88;;;15.63;74.39
62333;BME280;48624;49.812;8.562;2024-02-16T12:02:20;100570.50;;;15.63;74.15
62333;BME280;48624;49.812;8.562;2024-02-16T12:04:47;100577.69;;;15.94;73.77
62333;BME280;48624;49.812;8.562;2024-02-16T12:07:12;100575.31;;;16.01;72.96
62333;BME280;48624;49.812;8.562;2024-02-16T12:09:39;100581.84;;;16.18;73.30
62333;BME280;48624;49.812;8.562;2024-02-16T12:12:05;100584.81;;;16.54;72.63
62333;BME280;48624;49.812;8.562;2024-02-16T12:14:30;100579.75;;;16.81;71.03
62333;BME280;48624;49.812;8.562;2024-02-16T12:16:57;100582.25;;;17.12;70.58
62333;BME280;48624;49.812;8.562;2024-02-16T12:19:23;100575.69;;;17.44;70.24
62333;BME280;48624;49.812;8.562;2024-02-16T12:21:49;100588.03;;;17.65;67.35
62333;BME280;48624;49.812;8.562;2024-02-16T12:24:16;100569.69;;;17.22;67.15
62333;BME280;48624;49.812;8.562;2024-02-16T12:26:41;100578.72;;;18.25;65.81
62333;BME280;48624;49.812;8.562;2024-02-16T12:29:07;100574.66;;;17.93;66.25
62333;BME280;48624;49.812;8.562;2024-02-16T12:31:33;100568.81;;;17.97;64.61
62333;BME280;48624;49.812;8.562;2024-02-16T12:34:02;100579.03;;;18.22;66.16
62333;BME280;48624;49.812;8.562;2024-02-16T12:36:29;100574.25;;;18.70;63.83
62333;BME280;48624;49.812;8.562;2024-02-16T12:38:54;100569.81;;;17.96;63.94
62333;BME280;48624;49.812;8.562;2024-02-16T12:41:20;100586.53;;;18.36;63.72
62333;BME280;48624;49.812;8.562;2024-02-16T12:43:45;100572.72;;;18.85;61.64
62333;BME280;48624;49.812;8.562;2024-02-16T12:46:10;100575.88;;;18.81;63.21
62333;BME280;48624;49.812;8.562;2024-02-16T12:48:36;100575.59;;;19.10;61.67